Weather at John F Kennedy International Airport

Public forecast

Using degrees Fahrenheit for public forecast. Weather courtesy of forecast.io.

Current aviation weather report (METAR) for John F Kennedy International Airport

2022/11/30 10:51 (retrieved 39 minutes ago)

KJFK 301051Z 16009KT 10SM SCT021 OVC050 09/06 A3014 RMK AO2 SLP205 T00940061

Aviation forecast (TAF) for John F Kennedy International Airport

2022/11/30 09:46 Ammendment (retrieved 2 hours ago)

TAF AMD KJFK 300838Z 3009/0112 11006KT P6SM SCT025 BKN200 FM301100 14011KT P6SM SCT025 BKN040 FM301400 16015G24KT P6SM VCSH BKN025 FM301600 18020G32KT 5SM -SHRA BR BKN015 WS020/20050KT FM302000 20025G40KT 3SM SHRA BR OVC007 WS020/22050KT FM302300 26025G40KT 6SM -SHRA BKN025 BKN050 FM010100 29020G29KT P6SM SKC